Flight Track Log - Related Links

Times and Time Zones

All times are in EDT time to prevent confusion due to time zone crossing. See the CTL61 flight status page for this flight to view local times or setup timezone preferences in your user account.

Time Position Orientation Groundspeed Altitude Reporting Facility
EDT Latitude Longitude Course Direction KTS MPH feet Rate Location/Type
Thu 10:52:12 PM 37.4006 -81.2758 345° North 160 184 6,000  Level Indianapolis Center
Thu 10:53:13 PM 37.4522 -81.2933 345° North 194 223 6,000 49 Level Indianapolis Center
Thu 10:54:14 PM 37.5056 -81.3092 347° North 201 231 6,100 49 Climbing Indianapolis Center
Thu 10:55:16 PM 37.5600 -81.3275 345° North 206 237 6,100 -49 Level Indianapolis Center
Thu 10:56:00 PM 37.5144 -81.2824 343° North  Level FlightAware Approximate
Thu 10:56:17 PM 37.6239 -81.3478 346° North 202 232 6,000  Level Indianapolis Center
Thu 10:57:18 PM 37.6789 -81.3656 346° North 206 237 6,200 98 Climbing Indianapolis Center
Thu 10:58:19 PM 37.7308 -81.3819 346° North 200 230 6,200  Level Indianapolis Center
Thu 10:59:21 PM 37.7842 -81.4006 345° North 202 232 6,200 -98 Level Indianapolis Center
Thu 11:00:22 PM 37.8464 -81.4236 344° North 207 238 6,000 -98 Descending Indianapolis Center
Thu 11:01:23 PM 37.9019 -81.4422 345° North 208 239 6,000 49 Level Indianapolis Center
Thu 11:02:25 PM 37.9578 -81.4597 346° North 207 238 6,100 -49 Climbing Indianapolis Center
Thu 11:03:26 PM 38.0142 -81.4750 348° North 205 236 5,900 -197 Descending Indianapolis Center
Thu 11:04:27 PM 38.0725 -81.4914 348° North 213 245 5,700 -195 Descending Indianapolis Center
Thu 11:05:29 PM 38.1303 -81.5075 348° North 212 244 5,500 -341 Descending Indianapolis Center
Thu 11:06:30 PM 38.1867 -81.5253 346° North 210 242 5,000 -492 Descending Indianapolis Center
Thu 11:07:31 PM 38.2433 -81.5511 340° North 213 245 4,500 -634 Descending Indianapolis Center
Thu 11:08:33 PM 38.3000 -81.5664 348° North 210 242 3,700 -1,122 Descending Indianapolis Center
Thu 11:09:34 PM 38.3619 -81.5542 North 207 238 2,200 -1,033 Descending Indianapolis Center
Thu 11:10:35 PM 38.3936 -81.5575 355° North 168 193 1,600 -439 Descending Indianapolis Center
Thu 11:11:37 PM 38.3847 -81.5861 248° West 136 157 1,300 -290 Descending Indianapolis Center

Login

Don't have an account? Register now (free) for customized features, flight alerts, and more!